Terminal Aerodrome Forecast
Issued by NWS Omaha/Valley, NE

Home | Current Version | Previous Version | Text Only | Print | Product List | Glossary On
Versions: 1 2 3 4 5 6 7 8 9 10 11 12 13 14 15 16
000
FTUS43 KOAX 200520
TAFOMA
TAF
KOMA 200520Z 2006/2106 16014KT P6SM BKN080
     FM200900 16008KT P6SM SCT080 BKN150
     FM201700 18013G19KT P6SM SCT060 BKN150
     FM202300 18008KT P6SM BKN060=

USA.gov is the U.S. government's official web portal to all federal, state and local government web resources and services.